Etusivu
METAR-TAF:

METAR-TAF

Lentoasemat :

Natchitoches Regional Airport

Natchitoches, Louisiana, Yhdysvallat

Leveyspiiri: 31-44-09N, Pituuspiiri: 093-05-57W, korkeus merenpinnasta: 37 m

Tämänhetkinen sää

Tämä raportti tehtiin 10 minuuttia sitten, kello 17.15 UTC
tyyntä
Lämpötila 4°C
Kosteus 52%
Ilmanpaine 1028 hPa
Näkyvyys: 16.1 km
selkeää

METAR: KIER 131715Z AUTO 00000KT 10SM CLR 04/M05 A3035 RMK AO2 T00421055

Aika: 11:25 (17:25 UTC)


TAF: puuttuu

Säähavainnot ja -ennusteet yli 4000 lentoasemalta (METAR- ja TAF-raportit).

Käytössä olevat sääasemat on merkitty karttaan keltaisilla ja punaisilla pisteillä.

Aseta hiiri pisteen päälle nähdäksesi sääaseman nimen.

Klikkaa sitten nähdäksesi säähavainnot ja -ennusteet.

Kartan vaihtaminen: klikkaa mustalla rastilla varustettuja vihreitä pisteitä, niin voit zoomata sisään; viivalla varustettua vihreää pistettä, niin voit zoomata ulos tai vihreitä nuolia, niin pääset viereisille kartoille.


METAR-TAF: